sensor_id;sensor_type;location;lat;lon;timestamp;P1;durP1;ratioP1;P2;durP2;ratioP2
75687;SDS011;64300;45.034;38.910;2023-03-15T00:00:52;6.70;;;3.28;;
75687;SDS011;64300;45.034;38.910;2023-03-15T00:03:22;12.02;;;3.58;;
75687;SDS011;64300;45.034;38.910;2023-03-15T00:05:51;9.07;;;3.15;;
75687;SDS011;64300;45.034;38.910;2023-03-15T00:10:43;7.32;;;3.50;;
75687;SDS011;64300;45.034;38.910;2023-03-15T00:13:12;10.35;;;3.60;;
75687;SDS011;64300;45.034;38.910;2023-03-15T00:15:48;6.63;;;2.97;;
75687;SDS011;64300;45.034;38.910;2023-03-15T00:18:16;9.32;;;3.38;;
75687;SDS011;64300;45.034;38.910;2023-03-15T00:20:43;7.10;;;2.70;;
75687;SDS011;64300;45.034;38.910;2023-03-15T00:23:09;7.68;;;2.90;;
75687;SDS011;64300;45.034;38.910;2023-03-15T00:25:35;5.30;;;2.88;;
75687;SDS011;64300;45.034;38.910;2023-03-15T00:28:01;6.97;;;3.20;;
75687;SDS011;64300;45.034;38.910;2023-03-15T00:30:27;6.97;;;3.10;;
75687;SDS011;64300;45.034;38.910;2023-03-15T00:35:19;6.38;;;3.03;;
75687;SDS011;64300;45.034;38.910;2023-03-15T00:37:46;5.55;;;2.70;;
75687;SDS011;64300;45.034;38.910;2023-03-15T00:40:12;6.95;;;3.15;;
75687;SDS011;64300;45.034;38.910;2023-03-15T00:42:38;7.03;;;3.20;;
75687;SDS011;64300;45.034;38.910;2023-03-15T00:45:04;5.22;;;2.65;;
75687;SDS011;64300;45.034;38.910;2023-03-15T00:47:31;7.40;;;3.20;;
75687;SDS011;64300;45.034;38.910;2023-03-15T00:49:57;6.07;;;2.63;;
75687;SDS011;64300;45.034;38.910;2023-03-15T00:54:53;6.00;;;2.88;;
75687;SDS011;64300;45.034;38.910;2023-03-15T00:57:20;7.60;;;3.30;;
75687;SDS011;64300;45.034;38.910;2023-03-15T00:59:46;6.57;;;3.17;;
75687;SDS011;64300;45.034;38.910;2023-03-15T01:02:12;7.90;;;2.50;;
75687;SDS011;64300;45.034;38.910;2023-03-15T01:04:38;5.47;;;2.65;;
75687;SDS011;64300;45.034;38.910;2023-03-15T01:07:05;5.78;;;2.83;;
75687;SDS011;64300;45.034;38.910;2023-03-15T01:11:57;7.25;;;3.22;;
75687;SDS011;64300;45.034;38.910;2023-03-15T01:14:23;6.22;;;3.08;;
75687;SDS011;64300;45.034;38.910;2023-03-15T01:16:50;5.18;;;2.58;;
75687;SDS011;64300;45.034;38.910;2023-03-15T01:19:16;5.45;;;2.55;;
75687;SDS011;64300;45.034;38.910;2023-03-15T01:21:42;6.40;;;2.90;;
75687;SDS011;64300;45.034;38.910;2023-03-15T01:24:12;6.00;;;2.75;;
75687;SDS011;64300;45.034;38.910;2023-03-15T01:26:39;6.85;;;3.22;;
75687;SDS011;64300;45.034;38.910;2023-03-15T01:29:05;6.78;;;3.42;;
75687;SDS011;64300;45.034;38.910;2023-03-15T01:31:32;7.75;;;3.17;;
75687;SDS011;64300;45.034;38.910;2023-03-15T01:36:29;7.68;;;3.72;;
75687;SDS011;64300;45.034;38.910;2023-03-15T01:38:55;8.30;;;3.30;;
75687;SDS011;64300;45.034;38.910;2023-03-15T01:41:44;6.13;;;3.13;;
75687;SDS011;64300;45.034;38.910;2023-03-15T01:44:14;5.75;;;3.10;;
75687;SDS011;64300;45.034;38.910;2023-03-15T01:46:42;6.07;;;2.78;;
75687;SDS011;64300;45.034;38.910;2023-03-15T01:49:22;10.98;;;3.50;;
75687;SDS011;64300;45.034;38.910;2023-03-15T01:52:02;7.45;;;3.17;;
75687;SDS011;64300;45.034;38.910;2023-03-15T02:00:16;5.50;;;2.58;;
75687;SDS011;64300;45.034;38.910;2023-03-15T02:03:05;5.72;;;2.88;;
75687;SDS011;64300;45.034;38.910;2023-03-15T02:05:42;10.32;;;3.50;;
75687;SDS011;64300;45.034;38.910;2023-03-15T02:08:17;6.10;;;3.10;;
75687;SDS011;64300;45.034;38.910;2023-03-15T02:10:47;8.80;;;3.17;;
75687;SDS011;64300;45.034;38.910;2023-03-15T02:13:17;8.20;;;3.28;;
75687;SDS011;64300;45.034;38.910;2023-03-15T02:15:47;9.20;;;3.33;;
75687;SDS011;64300;45.034;38.910;2023-03-15T02:18:21;8.55;;;3.17;;
75687;SDS011;64300;45.034;38.910;2023-03-15T02:23:34;6.93;;;3.60;;
75687;SDS011;64300;45.034;38.910;2023-03-15T02:28:47;11.98;;;3.58;;
75687;SDS011;64300;45.034;38.910;2023-03-15T02:31:15;8.68;;;3.45;;
75687;SDS011;64300;45.034;38.910;2023-03-15T02:38:41;6.88;;;3.38;;
75687;SDS011;64300;45.034;38.910;2023-03-15T02:43:32;8.13;;;3.45;;
75687;SDS011;64300;45.034;38.910;2023-03-15T02:46:00;7.88;;;3.72;;
75687;SDS011;64300;45.034;38.910;2023-03-15T02:48:27;10.65;;;3.92;;
75687;SDS011;64300;45.034;38.910;2023-03-15T02:50:55;8.73;;;3.85;;
75687;SDS011;64300;45.034;38.910;2023-03-15T02:55:50;7.38;;;3.47;;
75687;SDS011;64300;45.034;38.910;2023-03-15T02:58:16;9.73;;;3.83;;
75687;SDS011;64300;45.034;38.910;2023-03-15T03:03:07;10.30;;;4.10;;
75687;SDS011;64300;45.034;38.910;2023-03-15T03:11:15;12.75;;;4.45;;
75687;SDS011;64300;45.034;38.910;2023-03-15T03:13:41;15.02;;;5.15;;
75687;SDS011;64300;45.034;38.910;2023-03-15T03:16:07;9.77;;;3.60;;
75687;SDS011;64300;45.034;38.910;2023-03-15T03:18:34;13.18;;;5.50;;
75687;SDS011;64300;45.034;38.910;2023-03-15T03:21:02;13.30;;;6.28;;
75687;SDS011;64300;45.034;38.910;2023-03-15T03:23:30;11.18;;;6.35;;
75687;SDS011;64300;45.034;38.910;2023-03-15T03:25:58;13.15;;;7.13;;
75687;SDS011;64300;45.034;38.910;2023-03-15T03:28:26;11.60;;;6.15;;
75687;SDS011;64300;45.034;38.910;2023-03-15T03:30:53;11.88;;;7.32;;
75687;SDS011;64300;45.034;38.910;2023-03-15T03:33:20;13.32;;;7.88;;
75687;SDS011;64300;45.034;38.910;2023-03-15T03:35:47;14.52;;;7.07;;
75687;SDS011;64300;45.034;38.910;2023-03-15T03:38:14;15.10;;;7.85;;
75687;SDS011;64300;45.034;38.910;2023-03-15T03:40:44;13.45;;;7.97;;
75687;SDS011;64300;45.034;38.910;2023-03-15T03:45:36;12.98;;;7.85;;
75687;SDS011;64300;45.034;38.910;2023-03-15T03:48:03;15.00;;;8.40;;
75687;SDS011;64300;45.034;38.910;2023-03-15T03:50:32;15.95;;;8.00;;
75687;SDS011;64300;45.034;38.910;2023-03-15T03:55:29;18.05;;;9.63;;
75687;SDS011;64300;45.034;38.910;2023-03-15T03:57:54;16.70;;;9.13;;
75687;SDS011;64300;45.034;38.910;2023-03-15T04:00:34;21.65;;;8.88;;
75687;SDS011;64300;45.034;38.910;2023-03-15T04:03:01;16.35;;;8.75;;
75687;SDS011;64300;45.034;38.910;2023-03-15T04:05:28;18.05;;;8.93;;
75687;SDS011;64300;45.034;38.910;2023-03-15T04:07:55;18.77;;;10.50;;
75687;SDS011;64300;45.034;38.910;2023-03-15T04:10:21;22.60;;;9.48;;
75687;SDS011;64300;45.034;38.910;2023-03-15T04:12:57;21.23;;;10.55;;
75687;SDS011;64300;45.034;38.910;2023-03-15T04:15:23;16.42;;;8.68;;
75687;SDS011;64300;45.034;38.910;2023-03-15T04:20:30;22.65;;;10.48;;
75687;SDS011;64300;45.034;38.910;2023-03-15T04:22:59;18.60;;;11.50;;
75687;SDS011;64300;45.034;38.910;2023-03-15T04:25:52;17.13;;;10.10;;
75687;SDS011;64300;45.034;38.910;2023-03-15T04:28:38;20.85;;;11.20;;
75687;SDS011;64300;45.034;38.910;2023-03-15T04:31:19;22.48;;;11.38;;
75687;SDS011;64300;45.034;38.910;2023-03-15T04:33:58;21.48;;;11.18;;
75687;SDS011;64300;45.034;38.910;2023-03-15T04:36:36;22.45;;;11.18;;
75687;SDS011;64300;45.034;38.910;2023-03-15T04:39:30;25.40;;;11.57;;
75687;SDS011;64300;45.034;38.910;2023-03-15T04:42:22;21.05;;;12.05;;
75687;SDS011;64300;45.034;38.910;2023-03-15T04:45:12;21.08;;;11.95;;
75687;SDS011;64300;45.034;38.910;2023-03-15T04:47:52;20.60;;;10.77;;
75687;SDS011;64300;45.034;38.910;2023-03-15T04:50:30;18.80;;;11.00;;
75687;SDS011;64300;45.034;38.910;2023-03-15T04:53:21;17.00;;;10.98;;
75687;SDS011;64300;45.034;38.910;2023-03-15T04:56:00;23.52;;;12.13;;
75687;SDS011;64300;45.034;38.910;2023-03-15T04:58:45;16.58;;;10.25;;
75687;SDS011;64300;45.034;38.910;2023-03-15T05:01:34;18.85;;;11.90;;
75687;SDS011;64300;45.034;38.910;2023-03-15T05:04:13;19.73;;;12.55;;
75687;SDS011;64300;45.034;38.910;2023-03-15T05:06:52;19.50;;;11.07;;
75687;SDS011;64300;45.034;38.910;2023-03-15T05:09:43;19.48;;;11.32;;
75687;SDS011;64300;45.034;38.910;2023-03-15T05:12:29;18.58;;;11.10;;
75687;SDS011;64300;45.034;38.910;2023-03-15T05:15:11;17.95;;;11.45;;
75687;SDS011;64300;45.034;38.910;2023-03-15T05:17:55;18.17;;;10.55;;
75687;SDS011;64300;45.034;38.910;2023-03-15T05:20:36;21.13;;;13.40;;
75687;SDS011;64300;45.034;38.910;2023-03-15T05:23:25;22.02;;;11.55;;
75687;SDS011;64300;45.034;38.910;2023-03-15T05:26:04;22.05;;;11.50;;
75687;SDS011;64300;45.034;38.910;2023-03-15T05:29:02;22.13;;;12.48;;
75687;SDS011;64300;45.034;38.910;2023-03-15T05:31:51;20.75;;;11.40;;
75687;SDS011;64300;45.034;38.910;2023-03-15T05:34:38;20.85;;;11.00;;
75687;SDS011;64300;45.034;38.910;2023-03-15T05:37:24;24.45;;;12.55;;
75687;SDS011;64300;45.034;38.910;2023-03-15T05:39:50;21.38;;;10.52;;
75687;SDS011;64300;45.034;38.910;2023-03-15T05:42:48;21.52;;;10.63;;
75687;SDS011;64300;45.034;38.910;2023-03-15T05:45:41;24.25;;;12.23;;
75687;SDS011;64300;45.034;38.910;2023-03-15T05:48:37;20.92;;;10.80;;
75687;SDS011;64300;45.034;38.910;2023-03-15T05:51:23;17.58;;;11.50;;
75687;SDS011;64300;45.034;38.910;2023-03-15T05:54:06;19.50;;;11.23;;
75687;SDS011;64300;45.034;38.910;2023-03-15T05:56:44;18.40;;;11.05;;
75687;SDS011;64300;45.034;38.910;2023-03-15T05:59:28;18.98;;;10.65;;
75687;SDS011;64300;45.034;38.910;2023-03-15T06:02:18;23.90;;;11.48;;
75687;SDS011;64300;45.034;38.910;2023-03-15T06:04:56;17.85;;;11.35;;
75687;SDS011;64300;45.034;38.910;2023-03-15T06:07:25;19.55;;;10.77;;
75687;SDS011;64300;45.034;38.910;2023-03-15T06:09:51;18.45;;;12.27;;
75687;SDS011;64300;45.034;38.910;2023-03-15T06:12:17;22.35;;;12.07;;
75687;SDS011;64300;45.034;38.910;2023-03-15T06:14:44;23.77;;;12.70;;
75687;SDS011;64300;45.034;38.910;2023-03-15T06:17:10;20.67;;;12.23;;
75687;SDS011;64300;45.034;38.910;2023-03-15T06:19:37;27.38;;;12.40;;
75687;SDS011;64300;45.034;38.910;2023-03-15T06:22:03;20.13;;;12.40;;
75687;SDS011;64300;45.034;38.910;2023-03-15T06:24:36;21.80;;;11.18;;
75687;SDS011;64300;45.034;38.910;2023-03-15T06:27:02;18.50;;;11.43;;
75687;SDS011;64300;45.034;38.910;2023-03-15T06:29:29;24.92;;;12.68;;
75687;SDS011;64300;45.034;38.910;2023-03-15T06:31:56;21.73;;;11.98;;
75687;SDS011;64300;45.034;38.910;2023-03-15T06:34:23;16.73;;;11.38;;
75687;SDS011;64300;45.034;38.910;2023-03-15T06:36:49;23.95;;;11.88;;
75687;SDS011;64300;45.034;38.910;2023-03-15T06:39:17;19.02;;;11.60;;
75687;SDS011;64300;45.034;38.910;2023-03-15T06:41:43;24.85;;;11.60;;
75687;SDS011;64300;45.034;38.910;2023-03-15T06:44:17;17.40;;;10.98;;
75687;SDS011;64300;45.034;38.910;2023-03-15T06:46:44;19.30;;;11.63;;
75687;SDS011;64300;45.034;38.910;2023-03-15T06:49:10;18.88;;;11.10;;
75687;SDS011;64300;45.034;38.910;2023-03-15T06:51:36;21.25;;;11.57;;
75687;SDS011;64300;45.034;38.910;2023-03-15T06:54:02;20.25;;;11.43;;
75687;SDS011;64300;45.034;38.910;2023-03-15T06:56:34;21.05;;;11.57;;
75687;SDS011;64300;45.034;38.910;2023-03-15T06:59:04;22.02;;;11.35;;
75687;SDS011;64300;45.034;38.910;2023-03-15T07:01:30;22.38;;;11.25;;
75687;SDS011;64300;45.034;38.910;2023-03-15T07:03:56;23.85;;;12.25;;
75687;SDS011;64300;45.034;38.910;2023-03-15T07:06:22;17.60;;;9.77;;
75687;SDS011;64300;45.034;38.910;2023-03-15T07:08:48;21.38;;;11.50;;
75687;SDS011;64300;45.034;38.910;2023-03-15T07:11:13;24.25;;;11.70;;
75687;SDS011;64300;45.034;38.910;2023-03-15T07:13:39;16.73;;;10.18;;
75687;SDS011;64300;45.034;38.910;2023-03-15T07:16:05;22.38;;;11.05;;
75687;SDS011;64300;45.034;38.910;2023-03-15T07:18:31;21.27;;;11.85;;
75687;SDS011;64300;45.034;38.910;2023-03-15T07:20:59;18.77;;;11.25;;
75687;SDS011;64300;45.034;38.910;2023-03-15T07:23:26;19.92;;;11.18;;
75687;SDS011;64300;45.034;38.910;2023-03-15T07:25:56;27.42;;;12.10;;
75687;SDS011;64300;45.034;38.910;2023-03-15T07:28:23;22.08;;;10.65;;
75687;SDS011;64300;45.034;38.910;2023-03-15T07:30:53;24.27;;;10.65;;
75687;SDS011;64300;45.034;38.910;2023-03-15T07:33:24;20.88;;;10.88;;
75687;SDS011;64300;45.034;38.910;2023-03-15T07:35:51;18.65;;;11.07;;
75687;SDS011;64300;45.034;38.910;2023-03-15T07:38:19;21.75;;;11.10;;
75687;SDS011;64300;45.034;38.910;2023-03-15T07:40:46;19.27;;;11.07;;
75687;SDS011;64300;45.034;38.910;2023-03-15T07:43:12;22.23;;;11.77;;
75687;SDS011;64300;45.034;38.910;2023-03-15T07:45:38;19.88;;;11.60;;
75687;SDS011;64300;45.034;38.910;2023-03-15T07:48:04;26.83;;;11.52;;
75687;SDS011;64300;45.034;38.910;2023-03-15T07:50:30;24.60;;;11.35;;
75687;SDS011;64300;45.034;38.910;2023-03-15T07:52:56;18.40;;;11.95;;
75687;SDS011;64300;45.034;38.910;2023-03-15T07:55:22;28.90;;;11.85;;
75687;SDS011;64300;45.034;38.910;2023-03-15T07:57:49;22.35;;;12.43;;
75687;SDS011;64300;45.034;38.910;2023-03-15T08:00:16;24.80;;;12.38;;
75687;SDS011;64300;45.034;38.910;2023-03-15T08:02:42;22.58;;;11.85;;
75687;SDS011;64300;45.034;38.910;2023-03-15T08:05:08;20.75;;;11.32;;
75687;SDS011;64300;45.034;38.910;2023-03-15T08:07:35;21.45;;;11.82;;
75687;SDS011;64300;45.034;38.910;2023-03-15T08:10:01;25.55;;;12.35;;
75687;SDS011;64300;45.034;38.910;2023-03-15T08:12:29;20.30;;;12.45;;
75687;SDS011;64300;45.034;38.910;2023-03-15T08:14:55;25.02;;;11.35;;
75687;SDS011;64300;45.034;38.910;2023-03-15T08:17:21;23.20;;;11.80;;
75687;SDS011;64300;45.034;38.910;2023-03-15T08:19:47;26.83;;;12.32;;
75687;SDS011;64300;45.034;38.910;2023-03-15T08:22:13;22.58;;;11.40;;
75687;SDS011;64300;45.034;38.910;2023-03-15T08:29:43;20.67;;;11.10;;
75687;SDS011;64300;45.034;38.910;2023-03-15T08:32:09;23.58;;;10.35;;
75687;SDS011;64300;45.034;38.910;2023-03-15T08:34:35;20.83;;;11.13;;
75687;SDS011;64300;45.034;38.910;2023-03-15T08:37:00;21.95;;;11.45;;
75687;SDS011;64300;45.034;38.910;2023-03-15T08:39:26;22.60;;;12.32;;
75687;SDS011;64300;45.034;38.910;2023-03-15T08:41:52;25.88;;;12.10;;
75687;SDS011;64300;45.034;38.910;2023-03-15T08:44:18;38.33;;;13.80;;
75687;SDS011;64300;45.034;38.910;2023-03-15T08:46:43;27.02;;;12.98;;
75687;SDS011;64300;45.034;38.910;2023-03-15T08:49:09;26.77;;;11.90;;
75687;SDS011;64300;45.034;38.910;2023-03-15T08:51:35;31.17;;;13.00;;
75687;SDS011;64300;45.034;38.910;2023-03-15T08:54:01;20.35;;;13.00;;
75687;SDS011;64300;45.034;38.910;2023-03-15T08:56:29;21.55;;;11.75;;
75687;SDS011;64300;45.034;38.910;2023-03-15T08:58:56;25.25;;;11.95;;
75687;SDS011;64300;45.034;38.910;2023-03-15T09:01:22;22.50;;;11.48;;
75687;SDS011;64300;45.034;38.910;2023-03-15T09:03:48;22.77;;;12.13;;
75687;SDS011;64300;45.034;38.910;2023-03-15T09:06:14;20.20;;;11.88;;
75687;SDS011;64300;45.034;38.910;2023-03-15T09:08:40;26.17;;;12.57;;
75687;SDS011;64300;45.034;38.910;2023-03-15T09:11:06;33.65;;;13.00;;
75687;SDS011;64300;45.034;38.910;2023-03-15T09:13:32;21.67;;;12.18;;
75687;SDS011;64300;45.034;38.910;2023-03-15T09:15:58;30.27;;;12.00;;
75687;SDS011;64300;45.034;38.910;2023-03-15T09:18:24;22.98;;;12.40;;
75687;SDS011;64300;45.034;38.910;2023-03-15T09:20:50;21.13;;;12.02;;
75687;SDS011;64300;45.034;38.910;2023-03-15T09:23:19;16.63;;;11.23;;
75687;SDS011;64300;45.034;38.910;2023-03-15T09:25:45;26.00;;;11.43;;
75687;SDS011;64300;45.034;38.910;2023-03-15T09:28:11;25.55;;;12.52;;
75687;SDS011;64300;45.034;38.910;2023-03-15T09:30:38;31.45;;;11.18;;
75687;SDS011;64300;45.034;38.910;2023-03-15T09:33:05;18.95;;;9.55;;
75687;SDS011;64300;45.034;38.910;2023-03-15T09:35:31;27.15;;;11.35;;
75687;SDS011;64300;45.034;38.910;2023-03-15T09:37:58;23.83;;;10.13;;
75687;SDS011;64300;45.034;38.910;2023-03-15T09:40:31;21.73;;;10.57;;
75687;SDS011;64300;45.034;38.910;2023-03-15T09:50:54;18.70;;;10.32;;
75687;SDS011;64300;45.034;38.910;2023-03-15T09:56:37;21.52;;;11.48;;
75687;SDS011;64300;45.034;38.910;2023-03-15T09:59:10;16.63;;;10.07;;
75687;SDS011;64300;45.034;38.910;2023-03-15T10:01:37;22.38;;;11.45;;
75687;SDS011;64300;45.034;38.910;2023-03-15T10:06:38;20.58;;;11.20;;
75687;SDS011;64300;45.034;38.910;2023-03-15T10:09:11;17.88;;;10.85;;
75687;SDS011;64300;45.034;38.910;2023-03-15T10:11:44;19.42;;;10.57;;
75687;SDS011;64300;45.034;38.910;2023-03-15T10:16:55;21.48;;;10.15;;
75687;SDS011;64300;45.034;38.910;2023-03-15T10:19:31;20.20;;;10.25;;
75687;SDS011;64300;45.034;38.910;2023-03-15T10:22:43;27.05;;;10.93;;
75687;SDS011;64300;45.034;38.910;2023-03-15T10:25:03;22.35;;;10.73;;
75687;SDS011;64300;45.034;38.910;2023-03-15T10:27:48;23.00;;;11.77;;
75687;SDS011;64300;45.034;38.910;2023-03-15T10:30:22;26.17;;;12.02;;
75687;SDS011;64300;45.034;38.910;2023-03-15T10:35:56;26.42;;;10.63;;
75687;SDS011;64300;45.034;38.910;2023-03-15T10:38:23;17.98;;;10.60;;
75687;SDS011;64300;45.034;38.910;2023-03-15T10:40:54;20.88;;;9.80;;
75687;SDS011;64300;45.034;38.910;2023-03-15T10:43:33;17.98;;;9.63;;
75687;SDS011;64300;45.034;38.910;2023-03-15T10:46:02;24.95;;;9.90;;
75687;SDS011;64300;45.034;38.910;2023-03-15T10:48:40;20.05;;;10.25;;
75687;SDS011;64300;45.034;38.910;2023-03-15T10:51:20;18.58;;;9.73;;
75687;SDS011;64300;45.034;38.910;2023-03-15T10:54:06;24.55;;;9.88;;
75687;SDS011;64300;45.034;38.910;2023-03-15T10:56:41;19.98;;;10.10;;
75687;SDS011;64300;45.034;38.910;2023-03-15T10:59:17;19.60;;;9.85;;
75687;SDS011;64300;45.034;38.910;2023-03-15T11:01:50;23.95;;;11.15;;
75687;SDS011;64300;45.034;38.910;2023-03-15T11:04:21;23.80;;;10.45;;
75687;SDS011;64300;45.034;38.910;2023-03-15T11:09:23;18.88;;;9.65;;
75687;SDS011;64300;45.034;38.910;2023-03-15T11:11:56;18.83;;;10.10;;
75687;SDS011;64300;45.034;38.910;2023-03-15T11:14:32;16.73;;;10.60;;
75687;SDS011;64300;45.034;38.910;2023-03-15T11:17:01;19.90;;;10.20;;
75687;SDS011;64300;45.034;38.910;2023-03-15T11:19:30;18.08;;;10.10;;
75687;SDS011;64300;45.034;38.910;2023-03-15T11:22:00;15.90;;;9.52;;
75687;SDS011;64300;45.034;38.910;2023-03-15T11:24:30;17.58;;;9.80;;
75687;SDS011;64300;45.034;38.910;2023-03-15T11:26:58;21.45;;;9.80;;
75687;SDS011;64300;45.034;38.910;2023-03-15T11:38:08;17.55;;;9.68;;
75687;SDS011;64300;45.034;38.910;2023-03-15T11:45:35;19.38;;;10.10;;
75687;SDS011;64300;45.034;38.910;2023-03-15T11:51:00;17.60;;;10.23;;
75687;SDS011;64300;45.034;38.910;2023-03-15T11:53:31;18.42;;;10.05;;
75687;SDS011;64300;45.034;38.910;2023-03-15T11:56:18;20.70;;;9.57;;
75687;SDS011;64300;45.034;38.910;2023-03-15T11:58:58;17.20;;;8.88;;
75687;SDS011;64300;45.034;38.910;2023-03-15T12:04:44;16.30;;;9.95;;
75687;SDS011;64300;45.034;38.910;2023-03-15T12:07:31;19.02;;;9.50;;
75687;SDS011;64300;45.034;38.910;2023-03-15T12:15:03;15.25;;;9.30;;
75687;SDS011;64300;45.034;38.910;2023-03-15T12:22:37;17.75;;;10.18;;
75687;SDS011;64300;45.034;38.910;2023-03-15T12:25:28;19.90;;;9.63;;
75687;SDS011;64300;45.034;38.910;2023-03-15T12:28:04;16.20;;;9.45;;
75687;SDS011;64300;45.034;38.910;2023-03-15T12:30:40;19.08;;;9.50;;
75687;SDS011;64300;45.034;38.910;2023-03-15T12:33:15;16.20;;;9.52;;
75687;SDS011;64300;45.034;38.910;2023-03-15T12:35:44;20.23;;;9.85;;
75687;SDS011;64300;45.034;38.910;2023-03-15T12:38:14;16.15;;;9.50;;
75687;SDS011;64300;45.034;38.910;2023-03-15T12:40:50;19.17;;;10.20;;
75687;SDS011;64300;45.034;38.910;2023-03-15T12:46:03;16.60;;;9.73;;
75687;SDS011;64300;45.034;38.910;2023-03-15T12:48:30;17.27;;;10.52;;
75687;SDS011;64300;45.034;38.910;2023-03-15T12:50:58;19.48;;;10.48;;
75687;SDS011;64300;45.034;38.910;2023-03-15T12:58:42;19.02;;;11.02;;
75687;SDS011;64300;45.034;38.910;2023-03-15T13:01:12;17.92;;;10.20;;
75687;SDS011;64300;45.034;38.910;2023-03-15T13:03:40;19.77;;;9.98;;
75687;SDS011;64300;45.034;38.910;2023-03-15T13:09:17;20.02;;;10.45;;
75687;SDS011;64300;45.034;38.910;2023-03-15T13:12:07;19.35;;;10.25;;
75687;SDS011;64300;45.034;38.910;2023-03-15T13:14:41;16.88;;;10.15;;
75687;SDS011;64300;45.034;38.910;2023-03-15T13:20:24;21.92;;;10.48;;
75687;SDS011;64300;45.034;38.910;2023-03-15T13:28:46;20.63;;;9.73;;
75687;SDS011;64300;45.034;38.910;2023-03-15T13:31:33;20.77;;;10.20;;
75687;SDS011;64300;45.034;38.910;2023-03-15T13:36:40;15.27;;;8.43;;
75687;SDS011;64300;45.034;38.910;2023-03-15T13:39:13;21.20;;;10.07;;
75687;SDS011;64300;45.034;38.910;2023-03-15T13:41:43;17.27;;;9.07;;
75687;SDS011;64300;45.034;38.910;2023-03-15T13:44:20;18.15;;;9.43;;
75687;SDS011;64300;45.034;38.910;2023-03-15T13:46:50;19.80;;;9.85;;
75687;SDS011;64300;45.034;38.910;2023-03-15T13:49:17;21.85;;;10.45;;
75687;SDS011;64300;45.034;38.910;2023-03-15T13:51:44;18.40;;;9.95;;
75687;SDS011;64300;45.034;38.910;2023-03-15T13:59:20;19.77;;;10.30;;
75687;SDS011;64300;45.034;38.910;2023-03-15T14:01:48;24.73;;;10.63;;
75687;SDS011;64300;45.034;38.910;2023-03-15T14:04:18;23.25;;;11.15;;
75687;SDS011;64300;45.034;38.910;2023-03-15T14:06:46;19.17;;;10.20;;
75687;SDS011;64300;45.034;38.910;2023-03-15T14:09:20;21.08;;;9.80;;
75687;SDS011;64300;45.034;38.910;2023-03-15T14:11:59;24.80;;;10.85;;
75687;SDS011;64300;45.034;38.910;2023-03-15T14:14:30;20.17;;;10.00;;
75687;SDS011;64300;45.034;38.910;2023-03-15T14:17:05;22.67;;;9.80;;
75687;SDS011;64300;45.034;38.910;2023-03-15T14:19:52;26.88;;;9.95;;
75687;SDS011;64300;45.034;38.910;2023-03-15T14:22:19;20.17;;;9.38;;
75687;SDS011;64300;45.034;38.910;2023-03-15T14:24:46;18.20;;;8.50;;
75687;SDS011;64300;45.034;38.910;2023-03-15T14:27:16;19.80;;;9.68;;
75687;SDS011;64300;45.034;38.910;2023-03-15T14:29:58;18.25;;;9.20;;
75687;SDS011;64300;45.034;38.910;2023-03-15T14:34:57;23.77;;;9.93;;
75687;SDS011;64300;45.034;38.910;2023-03-15T14:37:31;20.55;;;9.60;;
75687;SDS011;64300;45.034;38.910;2023-03-15T14:40:47;23.30;;;10.45;;
75687;SDS011;64300;45.034;38.910;2023-03-15T14:43:03;23.30;;;10.88;;
75687;SDS011;64300;45.034;38.910;2023-03-15T14:45:31;21.25;;;10.27;;
75687;SDS011;64300;45.034;38.910;2023-03-15T14:48:02;26.33;;;11.13;;
75687;SDS011;64300;45.034;38.910;2023-03-15T14:50:36;22.42;;;11.77;;
75687;SDS011;64300;45.034;38.910;2023-03-15T14:53:05;23.20;;;10.68;;
75687;SDS011;64300;45.034;38.910;2023-03-15T14:55:33;23.67;;;10.75;;
75687;SDS011;64300;45.034;38.910;2023-03-15T14:58:01;22.00;;;10.27;;
75687;SDS011;64300;45.034;38.910;2023-03-15T15:00:29;23.05;;;10.95;;
75687;SDS011;64300;45.034;38.910;2023-03-15T15:02:57;25.38;;;11.02;;
75687;SDS011;64300;45.034;38.910;2023-03-15T15:05:24;25.10;;;11.15;;
75687;SDS011;64300;45.034;38.910;2023-03-15T15:07:51;25.75;;;11.27;;
75687;SDS011;64300;45.034;38.910;2023-03-15T15:10:23;22.33;;;11.25;;
75687;SDS011;64300;45.034;38.910;2023-03-15T15:12:50;29.80;;;10.68;;
75687;SDS011;64300;45.034;38.910;2023-03-15T15:15:17;25.05;;;11.90;;
75687;SDS011;64300;45.034;38.910;2023-03-15T15:17:45;24.67;;;11.90;;
75687;SDS011;64300;45.034;38.910;2023-03-15T15:20:22;22.65;;;10.95;;
75687;SDS011;64300;45.034;38.910;2023-03-15T15:22:52;25.95;;;10.40;;
75687;SDS011;64300;45.034;38.910;2023-03-15T15:25:18;22.23;;;10.32;;
75687;SDS011;64300;45.034;38.910;2023-03-15T15:27:48;26.48;;;11.13;;
75687;SDS011;64300;45.034;38.910;2023-03-15T15:33:00;25.70;;;11.40;;
75687;SDS011;64300;45.034;38.910;2023-03-15T15:35:26;23.08;;;11.60;;
75687;SDS011;64300;45.034;38.910;2023-03-15T15:37:53;22.02;;;10.63;;
75687;SDS011;64300;45.034;38.910;2023-03-15T15:40:40;21.50;;;10.70;;
75687;SDS011;64300;45.034;38.910;2023-03-15T15:43:07;23.38;;;10.75;;
75687;SDS011;64300;45.034;38.910;2023-03-15T15:45:36;24.48;;;10.77;;
75687;SDS011;64300;45.034;38.910;2023-03-15T15:48:02;31.20;;;12.07;;
75687;SDS011;64300;45.034;38.910;2023-03-15T15:50:31;31.20;;;12.73;;
75687;SDS011;64300;45.034;38.910;2023-03-15T15:53:00;22.45;;;11.40;;
75687;SDS011;64300;45.034;38.910;2023-03-15T15:55:29;23.70;;;12.18;;
75687;SDS011;64300;45.034;38.910;2023-03-15T15:57:58;28.73;;;11.73;;
75687;SDS011;64300;45.034;38.910;2023-03-15T16:00:25;30.92;;;11.80;;
75687;SDS011;64300;45.034;38.910;2023-03-15T16:02:52;27.63;;;12.35;;
75687;SDS011;64300;45.034;38.910;2023-03-15T16:05:20;28.67;;;13.10;;
75687;SDS011;64300;45.034;38.910;2023-03-15T16:07:49;26.38;;;11.10;;
75687;SDS011;64300;45.034;38.910;2023-03-15T16:10:20;25.70;;;11.35;;
75687;SDS011;64300;45.034;38.910;2023-03-15T16:12:51;28.05;;;12.10;;
75687;SDS011;64300;45.034;38.910;2023-03-15T16:15:19;22.63;;;11.23;;
75687;SDS011;64300;45.034;38.910;2023-03-15T16:17:46;24.33;;;12.00;;
75687;SDS011;64300;45.034;38.910;2023-03-15T16:20:15;23.38;;;11.13;;
75687;SDS011;64300;45.034;38.910;2023-03-15T16:22:44;26.27;;;12.38;;
75687;SDS011;64300;45.034;38.910;2023-03-15T16:25:21;34.90;;;12.27;;
75687;SDS011;64300;45.034;38.910;2023-03-15T16:27:54;28.55;;;12.05;;
75687;SDS011;64300;45.034;38.910;2023-03-15T16:30:25;28.55;;;12.85;;
75687;SDS011;64300;45.034;38.910;2023-03-15T16:32:52;27.65;;;12.30;;
75687;SDS011;64300;45.034;38.910;2023-03-15T16:35:34;28.50;;;11.70;;
75687;SDS011;64300;45.034;38.910;2023-03-15T16:38:00;35.95;;;12.55;;
75687;SDS011;64300;45.034;38.910;2023-03-15T16:40:27;22.98;;;11.95;;
75687;SDS011;64300;45.034;38.910;2023-03-15T16:42:55;30.85;;;12.45;;
75687;SDS011;64300;45.034;38.910;2023-03-15T16:45:21;24.08;;;11.10;;
75687;SDS011;64300;45.034;38.910;2023-03-15T16:47:48;31.67;;;12.00;;
75687;SDS011;64300;45.034;38.910;2023-03-15T16:50:14;28.77;;;12.40;;
75687;SDS011;64300;45.034;38.910;2023-03-15T16:52:41;28.15;;;12.15;;
75687;SDS011;64300;45.034;38.910;2023-03-15T16:55:12;30.90;;;11.77;;
75687;SDS011;64300;45.034;38.910;2023-03-15T16:57:39;33.35;;;12.70;;